sensor_id;sensor_type;location;lat;lon;timestamp;temperature;humidity
25570;DHT22;17955;45.542;9.238;2022-08-02T00:02:05;34.00;44.10
25570;DHT22;17955;45.542;9.238;2022-08-02T00:04:32;34.10;44.20
25570;DHT22;17955;45.542;9.238;2022-08-02T00:06:58;34.30;44.20
25570;DHT22;17955;45.542;9.238;2022-08-02T00:09:27;34.60;44.00
25570;DHT22;17955;45.542;9.238;2022-08-02T00:11:54;34.80;43.80
25570;DHT22;17955;45.542;9.238;2022-08-02T00:14:21;34.80;43.60
25570;DHT22;17955;45.542;9.238;2022-08-02T00:16:48;34.80;43.50
25570;DHT22;17955;45.542;9.238;2022-08-02T00:19:15;34.80;43.60
25570;DHT22;17955;45.542;9.238;2022-08-02T00:21:42;34.80;43.50
25570;DHT22;17955;45.542;9.238;2022-08-02T00:24:09;34.70;43.50
25570;DHT22;17955;45.542;9.238;2022-08-02T00:26:37;34.70;43.50
25570;DHT22;17955;45.542;9.238;2022-08-02T00:29:04;34.70;43.60
25570;DHT22;17955;45.542;9.238;2022-08-02T00:31:31;34.70;43.50
25570;DHT22;17955;45.542;9.238;2022-08-02T00:33:58;34.60;43.60
25570;DHT22;17955;45.542;9.238;2022-08-02T00:36:25;34.60;43.70
25570;DHT22;17955;45.542;9.238;2022-08-02T00:38:52;34.50;43.70
25570;DHT22;17955;45.542;9.238;2022-08-02T00:41:20;34.50;43.80
25570;DHT22;17955;45.542;9.238;2022-08-02T00:43:50;34.50;43.90
25570;DHT22;17955;45.542;9.238;2022-08-02T00:46:18;34.50;43.80
25570;DHT22;17955;45.542;9.238;2022-08-02T00:48:46;34.60;43.80
25570;DHT22;17955;45.542;9.238;2022-08-02T00:51:14;34.70;43.80
25570;DHT22;17955;45.542;9.238;2022-08-02T00:53:41;34.70;44.40
25570;DHT22;17955;45.542;9.238;2022-08-02T00:56:08;34.80;44.40
25570;DHT22;17955;45.542;9.238;2022-08-02T00:58:35;34.70;44.00
25570;DHT22;17955;45.542;9.238;2022-08-02T01:01:04;34.70;44.10
25570;DHT22;17955;45.542;9.238;2022-08-02T01:03:31;34.70;44.20
25570;DHT22;17955;45.542;9.238;2022-08-02T01:05:58;34.70;44.20
25570;DHT22;17955;45.542;9.238;2022-08-02T01:08:25;34.50;44.50
25570;DHT22;17955;45.542;9.238;2022-08-02T01:10:51;34.50;44.60
25570;DHT22;17955;45.542;9.238;2022-08-02T01:13:19;34.50;44.80
25570;DHT22;17955;45.542;9.238;2022-08-02T01:15:50;34.50;44.90
25570;DHT22;17955;45.542;9.238;2022-08-02T01:18:24;34.40;45.10
25570;DHT22;17955;45.542;9.238;2022-08-02T01:21:22;34.50;45.30
25570;DHT22;17955;45.542;9.238;2022-08-02T01:24:03;34.30;45.50
25570;DHT22;17955;45.542;9.238;2022-08-02T01:26:40;34.00;45.70
25570;DHT22;17955;45.542;9.238;2022-08-02T01:29:12;33.30;47.10
25570;DHT22;17955;45.542;9.238;2022-08-02T01:31:46;32.40;48.50
25570;DHT22;17955;45.542;9.238;2022-08-02T01:34:18;31.70;49.20
25570;DHT22;17955;45.542;9.238;2022-08-02T01:36:51;31.40;49.50
25570;DHT22;17955;45.542;9.238;2022-08-02T01:39:24;31.60;49.90
25570;DHT22;17955;45.542;9.238;2022-08-02T01:41:53;31.20;50.00
25570;DHT22;17955;45.542;9.238;2022-08-02T01:44:24;31.60;50.00
25570;DHT22;17955;45.542;9.238;2022-08-02T01:46:55;31.70;50.10
25570;DHT22;17955;45.542;9.238;2022-08-02T01:49:23;31.70;50.10
25570;DHT22;17955;45.542;9.238;2022-08-02T01:51:53;31.70;50.00
25570;DHT22;17955;45.542;9.238;2022-08-02T01:54:39;31.80;50.10
25570;DHT22;17955;45.542;9.238;2022-08-02T01:57:09;31.90;50.10
25570;DHT22;17955;45.542;9.238;2022-08-02T01:59:42;31.90;50.20
25570;DHT22;17955;45.542;9.238;2022-08-02T02:02:10;31.80;50.50
25570;DHT22;17955;45.542;9.238;2022-08-02T02:04:39;31.70;50.70
25570;DHT22;17955;45.542;9.238;2022-08-02T02:07:06;31.90;50.60
25570;DHT22;17955;45.542;9.238;2022-08-02T02:09:36;32.10;50.50
25570;DHT22;17955;45.542;9.238;2022-08-02T02:12:05;32.10;50.60
25570;DHT22;17955;45.542;9.238;2022-08-02T02:14:34;31.80;50.70
25570;DHT22;17955;45.542;9.238;2022-08-02T02:17:04;31.60;51.00
25570;DHT22;17955;45.542;9.238;2022-08-02T02:19:34;31.50;51.40
25570;DHT22;17955;45.542;9.238;2022-08-02T02:22:02;31.70;51.40
25570;DHT22;17955;45.542;9.238;2022-08-02T02:24:30;31.80;51.40
25570;DHT22;17955;45.542;9.238;2022-08-02T02:26:58;32.10;51.30
25570;DHT22;17955;45.542;9.238;2022-08-02T02:29:28;32.10;51.40
25570;DHT22;17955;45.542;9.238;2022-08-02T02:31:57;31.90;51.50
25570;DHT22;17955;45.542;9.238;2022-08-02T02:34:28;31.70;51.60
25570;DHT22;17955;45.542;9.238;2022-08-02T02:36:58;31.40;52.00
25570;DHT22;17955;45.542;9.238;2022-08-02T02:39:26;31.20;52.30
25570;DHT22;17955;45.542;9.238;2022-08-02T02:41:56;31.00;52.60
25570;DHT22;17955;45.542;9.238;2022-08-02T02:44:25;30.90;52.90
25570;DHT22;17955;45.542;9.238;2022-08-02T02:46:53;31.40;52.70
25570;DHT22;17955;45.542;9.238;2022-08-02T02:49:22;31.90;52.40
25570;DHT22;17955;45.542;9.238;2022-08-02T02:51:51;32.10;52.10
25570;DHT22;17955;45.542;9.238;2022-08-02T02:54:19;32.20;52.00
25570;DHT22;17955;45.542;9.238;2022-08-02T02:56:47;32.30;52.00
25570;DHT22;17955;45.542;9.238;2022-08-02T02:59:15;32.30;52.10
25570;DHT22;17955;45.542;9.238;2022-08-02T03:01:42;32.30;52.20
25570;DHT22;17955;45.542;9.238;2022-08-02T03:04:10;32.50;52.30
25570;DHT22;17955;45.542;9.238;2022-08-02T03:06:38;32.60;52.30
25570;DHT22;17955;45.542;9.238;2022-08-02T03:09:07;32.70;52.40
25570;DHT22;17955;45.542;9.238;2022-08-02T03:11:35;32.90;52.30
25570;DHT22;17955;45.542;9.238;2022-08-02T03:14:04;32.70;52.50
25570;DHT22;17955;45.542;9.238;2022-08-02T03:16:41;32.80;52.60
25570;DHT22;17955;45.542;9.238;2022-08-02T03:19:08;32.60;52.80
25570;DHT22;17955;45.542;9.238;2022-08-02T03:21:35;32.60;52.90
25570;DHT22;17955;45.542;9.238;2022-08-02T03:24:03;32.70;53.00
25570;DHT22;17955;45.542;9.238;2022-08-02T03:26:31;32.70;52.90
25570;DHT22;17955;45.542;9.238;2022-08-02T03:28:58;32.80;53.00
25570;DHT22;17955;45.542;9.238;2022-08-02T03:31:25;32.90;53.00
25570;DHT22;17955;45.542;9.238;2022-08-02T03:33:53;32.90;53.10
25570;DHT22;17955;45.542;9.238;2022-08-02T03:36:22;32.80;53.10
25570;DHT22;17955;45.542;9.238;2022-08-02T03:38:50;32.70;53.40
25570;DHT22;17955;45.542;9.238;2022-08-02T03:41:18;32.60;53.50
25570;DHT22;17955;45.542;9.238;2022-08-02T03:43:48;32.60;53.50
25570;DHT22;17955;45.542;9.238;2022-08-02T03:46:18;32.70;53.60
25570;DHT22;17955;45.542;9.238;2022-08-02T03:48:48;32.90;53.50
25570;DHT22;17955;45.542;9.238;2022-08-02T03:51:15;32.90;53.40
25570;DHT22;17955;45.542;9.238;2022-08-02T03:53:43;32.80;53.60
25570;DHT22;17955;45.542;9.238;2022-08-02T03:56:10;32.80;53.80
25570;DHT22;17955;45.542;9.238;2022-08-02T03:58:37;32.40;54.10
25570;DHT22;17955;45.542;9.238;2022-08-02T04:01:06;32.30;54.50
25570;DHT22;17955;45.542;9.238;2022-08-02T04:03:33;32.40;54.60
25570;DHT22;17955;45.542;9.238;2022-08-02T04:06:00;32.50;54.70
25570;DHT22;17955;45.542;9.238;2022-08-02T04:08:26;32.50;54.60
25570;DHT22;17955;45.542;9.238;2022-08-02T04:10:54;32.50;54.60
25570;DHT22;17955;45.542;9.238;2022-08-02T04:13:40;32.50;54.80
25570;DHT22;17955;45.542;9.238;2022-08-02T04:16:12;32.30;55.10
25570;DHT22;17955;45.542;9.238;2022-08-02T04:18:44;31.90;55.60
25570;DHT22;17955;45.542;9.238;2022-08-02T04:21:14;31.30;56.10
25570;DHT22;17955;45.542;9.238;2022-08-02T04:23:42;30.80;57.50
25570;DHT22;17955;45.542;9.238;2022-08-02T04:26:11;30.70;57.50
25570;DHT22;17955;45.542;9.238;2022-08-02T04:28:39;30.40;58.00
25570;DHT22;17955;45.542;9.238;2022-08-02T04:31:07;29.80;58.50
25570;DHT22;17955;45.542;9.238;2022-08-02T04:33:35;29.60;59.30
25570;DHT22;17955;45.542;9.238;2022-08-02T04:36:04;28.90;60.50
25570;DHT22;17955;45.542;9.238;2022-08-02T04:38:32;28.60;61.40
25570;DHT22;17955;45.542;9.238;2022-08-02T04:40:59;28.50;61.60
25570;DHT22;17955;45.542;9.238;2022-08-02T04:43:26;28.30;62.50
25570;DHT22;17955;45.542;9.238;2022-08-02T04:45:53;28.10;63.00
25570;DHT22;17955;45.542;9.238;2022-08-02T04:48:21;28.20;64.30
25570;DHT22;17955;45.542;9.238;2022-08-02T04:50:50;28.20;64.20
25570;DHT22;17955;45.542;9.238;2022-08-02T04:53:17;28.00;64.50
25570;DHT22;17955;45.542;9.238;2022-08-02T04:55:44;28.00;65.40
25570;DHT22;17955;45.542;9.238;2022-08-02T04:58:12;27.90;66.00
25570;DHT22;17955;45.542;9.238;2022-08-02T05:00:39;27.70;66.10
25570;DHT22;17955;45.542;9.238;2022-08-02T05:03:06;27.70;66.50
25570;DHT22;17955;45.542;9.238;2022-08-02T05:05:33;27.70;67.10
25570;DHT22;17955;45.542;9.238;2022-08-02T05:08:02;27.60;67.30
25570;DHT22;17955;45.542;9.238;2022-08-02T05:10:29;27.70;68.00
25570;DHT22;17955;45.542;9.238;2022-08-02T05:12:55;27.40;69.30
25570;DHT22;17955;45.542;9.238;2022-08-02T05:15:23;27.30;69.40
25570;DHT22;17955;45.542;9.238;2022-08-02T05:17:50;27.50;69.80
25570;DHT22;17955;45.542;9.238;2022-08-02T05:20:17;27.60;70.50
25570;DHT22;17955;45.542;9.238;2022-08-02T05:22:45;27.50;71.00
25570;DHT22;17955;45.542;9.238;2022-08-02T05:25:14;27.40;70.70
25570;DHT22;17955;45.542;9.238;2022-08-02T05:27:41;27.40;71.40
25570;DHT22;17955;45.542;9.238;2022-08-02T05:30:09;27.40;71.60
25570;DHT22;17955;45.542;9.238;2022-08-02T05:32:42;27.90;72.20
25570;DHT22;17955;45.542;9.238;2022-08-02T05:35:09;27.60;72.40
25570;DHT22;17955;45.542;9.238;2022-08-02T05:37:36;27.20;73.70
25570;DHT22;17955;45.542;9.238;2022-08-02T05:40:04;27.00;74.80
25570;DHT22;17955;45.542;9.238;2022-08-02T05:42:33;26.50;76.80
25570;DHT22;17955;45.542;9.238;2022-08-02T05:45:00;26.90;76.20
25570;DHT22;17955;45.542;9.238;2022-08-02T05:47:27;27.60;75.20
25570;DHT22;17955;45.542;9.238;2022-08-02T05:49:54;28.30;73.90
25570;DHT22;17955;45.542;9.238;2022-08-02T05:52:24;28.30;73.60
25570;DHT22;17955;45.542;9.238;2022-08-02T05:54:56;28.10;74.10
25570;DHT22;17955;45.542;9.238;2022-08-02T05:57:36;29.40;71.30
25570;DHT22;17955;45.542;9.238;2022-08-02T06:00:06;29.40;70.80
25570;DHT22;17955;45.542;9.238;2022-08-02T06:03:03;30.50;69.30
25570;DHT22;17955;45.542;9.238;2022-08-02T06:05:33;30.80;67.90
25570;DHT22;17955;45.542;9.238;2022-08-02T06:08:02;31.70;66.60
25570;DHT22;17955;45.542;9.238;2022-08-02T06:10:33;31.90;65.70
25570;DHT22;17955;45.542;9.238;2022-08-02T06:13:07;31.60;66.00
25570;DHT22;17955;45.542;9.238;2022-08-02T06:15:35;31.80;65.90
25570;DHT22;17955;45.542;9.238;2022-08-02T06:18:04;32.10;66.40
25570;DHT22;17955;45.542;9.238;2022-08-02T06:20:31;32.40;65.10
25570;DHT22;17955;45.542;9.238;2022-08-02T06:23:02;32.30;64.80
25570;DHT22;17955;45.542;9.238;2022-08-02T06:25:31;31.70;65.50
25570;DHT22;17955;45.542;9.238;2022-08-02T06:27:59;31.70;65.80
25570;DHT22;17955;45.542;9.238;2022-08-02T06:30:28;31.60;65.90
25570;DHT22;17955;45.542;9.238;2022-08-02T06:32:55;31.60;65.10
25570;DHT22;17955;45.542;9.238;2022-08-02T06:35:25;32.30;64.30
25570;DHT22;17955;45.542;9.238;2022-08-02T06:37:59;32.90;62.90
25570;DHT22;17955;45.542;9.238;2022-08-02T06:40:30;33.50;61.80
25570;DHT22;17955;45.542;9.238;2022-08-02T06:43:05;33.70;61.40
25570;DHT22;17955;45.542;9.238;2022-08-02T06:45:35;33.70;61.30
25570;DHT22;17955;45.542;9.238;2022-08-02T06:48:03;33.70;61.10
25570;DHT22;17955;45.542;9.238;2022-08-02T06:50:30;34.10;60.50
25570;DHT22;17955;45.542;9.238;2022-08-02T06:52:57;34.20;59.70
25570;DHT22;17955;45.542;9.238;2022-08-02T06:55:25;33.60;59.40
25570;DHT22;17955;45.542;9.238;2022-08-02T06:57:52;32.80;60.30
25570;DHT22;17955;45.542;9.238;2022-08-02T07:00:19;32.90;60.20
25570;DHT22;17955;45.542;9.238;2022-08-02T07:02:48;32.30;60.90
25570;DHT22;17955;45.542;9.238;2022-08-02T07:05:15;32.20;61.10
25570;DHT22;17955;45.542;9.238;2022-08-02T07:07:42;32.70;61.00
25570;DHT22;17955;45.542;9.238;2022-08-02T07:10:09;32.00;60.90
25570;DHT22;17955;45.542;9.238;2022-08-02T07:12:36;32.10;60.80
25570;DHT22;17955;45.542;9.238;2022-08-02T07:15:05;32.00;61.00
25570;DHT22;17955;45.542;9.238;2022-08-02T07:17:33;32.10;61.00
25570;DHT22;17955;45.542;9.238;2022-08-02T07:20:02;31.90;61.00
25570;DHT22;17955;45.542;9.238;2022-08-02T07:22:30;32.50;60.80
25570;DHT22;17955;45.542;9.238;2022-08-02T07:24:59;31.10;61.60
25570;DHT22;17955;45.542;9.238;2022-08-02T07:27:27;30.00;64.60
25570;DHT22;17955;45.542;9.238;2022-08-02T07:29:55;29.10;66.00
25570;DHT22;17955;45.542;9.238;2022-08-02T07:32:23;29.70;66.00
25570;DHT22;17955;45.542;9.238;2022-08-02T07:34:51;30.40;64.90
25570;DHT22;17955;45.542;9.238;2022-08-02T07:37:20;30.20;64.70
25570;DHT22;17955;45.542;9.238;2022-08-02T07:39:47;29.80;65.30
25570;DHT22;17955;45.542;9.238;2022-08-02T07:42:14;30.10;64.60
25570;DHT22;17955;45.542;9.238;2022-08-02T07:44:41;30.30;64.30
25570;DHT22;17955;45.542;9.238;2022-08-02T07:47:08;30.60;63.70
25570;DHT22;17955;45.542;9.238;2022-08-02T07:49:35;30.50;64.50
25570;DHT22;17955;45.542;9.238;2022-08-02T07:52:03;30.10;63.90
25570;DHT22;17955;45.542;9.238;2022-08-02T07:54:31;29.60;64.60
25570;DHT22;17955;45.542;9.238;2022-08-02T07:56:58;29.40;65.50
25570;DHT22;17955;45.542;9.238;2022-08-02T07:59:25;29.70;65.80
25570;DHT22;17955;45.542;9.238;2022-08-02T08:01:53;29.40;65.20
25570;DHT22;17955;45.542;9.238;2022-08-02T08:04:20;29.50;65.10
25570;DHT22;17955;45.542;9.238;2022-08-02T08:06:47;29.20;66.30
25570;DHT22;17955;45.542;9.238;2022-08-02T08:09:16;29.50;65.70
25570;DHT22;17955;45.542;9.238;2022-08-02T08:11:45;29.60;65.50
25570;DHT22;17955;45.542;9.238;2022-08-02T08:14:12;29.50;65.50
25570;DHT22;17955;45.542;9.238;2022-08-02T08:16:39;30.20;64.80
25570;DHT22;17955;45.542;9.238;2022-08-02T08:19:05;30.20;64.40
25570;DHT22;17955;45.542;9.238;2022-08-02T08:21:32;30.30;64.80
25570;DHT22;17955;45.542;9.238;2022-08-02T08:24:00;30.60;63.80
25570;DHT22;17955;45.542;9.238;2022-08-02T08:26:29;30.60;64.20
25570;DHT22;17955;45.542;9.238;2022-08-02T08:28:57;30.80;63.30
25570;DHT22;17955;45.542;9.238;2022-08-02T08:31:25;30.80;63.20
25570;DHT22;17955;45.542;9.238;2022-08-02T08:33:52;30.60;63.40
25570;DHT22;17955;45.542;9.238;2022-08-02T08:36:19;30.50;63.70
25570;DHT22;17955;45.542;9.238;2022-08-02T08:38:46;30.70;63.60
25570;DHT22;17955;45.542;9.238;2022-08-02T08:41:15;30.80;63.30
25570;DHT22;17955;45.542;9.238;2022-08-02T08:43:42;31.00;63.00
25570;DHT22;17955;45.542;9.238;2022-08-02T08:46:14;31.00;62.90
25570;DHT22;17955;45.542;9.238;2022-08-02T08:48:45;30.60;63.40
25570;DHT22;17955;45.542;9.238;2022-08-02T08:51:15;30.10;63.90
25570;DHT22;17955;45.542;9.238;2022-08-02T08:53:47;30.10;64.70
25570;DHT22;17955;45.542;9.238;2022-08-02T08:56:15;30.00;64.80
25570;DHT22;17955;45.542;9.238;2022-08-02T08:58:42;30.20;64.70
25570;DHT22;17955;45.542;9.238;2022-08-02T09:01:11;30.10;64.70
25570;DHT22;17955;45.542;9.238;2022-08-02T09:03:38;30.10;64.90
25570;DHT22;17955;45.542;9.238;2022-08-02T09:06:05;30.00;64.80
25570;DHT22;17955;45.542;9.238;2022-08-02T09:08:32;29.90;65.10
25570;DHT22;17955;45.542;9.238;2022-08-02T09:10:59;30.10;65.10
25570;DHT22;17955;45.542;9.238;2022-08-02T09:13:27;30.00;64.90
25570;DHT22;17955;45.542;9.238;2022-08-02T09:15:57;29.90;65.30
25570;DHT22;17955;45.542;9.238;2022-08-02T09:18:32;29.90;65.70
25570;DHT22;17955;45.542;9.238;2022-08-02T09:21:02;29.90;65.60
25570;DHT22;17955;45.542;9.238;2022-08-02T09:23:34;29.70;65.90
25570;DHT22;17955;45.542;9.238;2022-08-02T09:26:03;29.90;65.90
25570;DHT22;17955;45.542;9.238;2022-08-02T09:28:33;29.70;65.70
25570;DHT22;17955;45.542;9.238;2022-08-02T09:31:05;29.90;65.40
25570;DHT22;17955;45.542;9.238;2022-08-02T09:33:35;29.90;65.20
25570;DHT22;17955;45.542;9.238;2022-08-02T09:36:04;29.90;65.30
25570;DHT22;17955;45.542;9.238;2022-08-02T09:38:32;30.10;65.10
25570;DHT22;17955;45.542;9.238;2022-08-02T09:41:00;30.10;65.10
25570;DHT22;17955;45.542;9.238;2022-08-02T09:43:37;30.10;65.40
25570;DHT22;17955;45.542;9.238;2022-08-02T09:46:14;30.10;65.20
25570;DHT22;17955;45.542;9.238;2022-08-02T09:48:53;30.00;65.50
25570;DHT22;17955;45.542;9.238;2022-08-02T09:51:23;30.30;65.30
25570;DHT22;17955;45.542;9.238;2022-08-02T09:53:52;30.40;65.00
25570;DHT22;17955;45.542;9.238;2022-08-02T09:56:21;30.40;64.90
25570;DHT22;17955;45.542;9.238;2022-08-02T09:58:48;30.60;64.80
25570;DHT22;17955;45.542;9.238;2022-08-02T10:01:18;30.50;64.70
25570;DHT22;17955;45.542;9.238;2022-08-02T10:03:58;30.50;64.90
25570;DHT22;17955;45.542;9.238;2022-08-02T10:06:26;30.40;64.30
25570;DHT22;17955;45.542;9.238;2022-08-02T10:08:53;30.30;64.60
25570;DHT22;17955;45.542;9.238;2022-08-02T10:11:21;30.00;64.30
25570;DHT22;17955;45.542;9.238;2022-08-02T10:13:48;30.10;64.50
25570;DHT22;17955;45.542;9.238;2022-08-02T10:16:17;30.30;64.30
25570;DHT22;17955;45.542;9.238;2022-08-02T10:18:48;30.20;64.00
25570;DHT22;17955;45.542;9.238;2022-08-02T10:21:21;30.30;64.20
25570;DHT22;17955;45.542;9.238;2022-08-02T10:23:49;30.10;63.80
25570;DHT22;17955;45.542;9.238;2022-08-02T10:26:18;30.00;64.70
25570;DHT22;17955;45.542;9.238;2022-08-02T10:28:47;29.80;64.90
25570;DHT22;17955;45.542;9.238;2022-08-02T10:31:18;29.90;64.80
25570;DHT22;17955;45.542;9.238;2022-08-02T10:33:47;30.10;64.40
25570;DHT22;17955;45.542;9.238;2022-08-02T10:36:17;30.30;64.00
25570;DHT22;17955;45.542;9.238;2022-08-02T10:38:44;30.40;63.60
25570;DHT22;17955;45.542;9.238;2022-08-02T10:41:12;30.10;63.60
25570;DHT22;17955;45.542;9.238;2022-08-02T10:43:44;30.10;63.40
25570;DHT22;17955;45.542;9.238;2022-08-02T10:46:28;29.90;63.50
25570;DHT22;17955;45.542;9.238;2022-08-02T10:49:07;30.00;63.30
25570;DHT22;17955;45.542;9.238;2022-08-02T10:51:55;30.10;63.90
25570;DHT22;17955;45.542;9.238;2022-08-02T10:54:23;29.90;62.50
25570;DHT22;17955;45.542;9.238;2022-08-02T10:56:52;30.20;62.60
25570;DHT22;17955;45.542;9.238;2022-08-02T10:59:24;30.30;62.70
25570;DHT22;17955;45.542;9.238;2022-08-02T11:01:52;30.40;62.40
25570;DHT22;17955;45.542;9.238;2022-08-02T11:04:27;30.40;62.50
25570;DHT22;17955;45.542;9.238;2022-08-02T11:07:13;30.60;62.00
25570;DHT22;17955;45.542;9.238;2022-08-02T11:09:41;30.70;62.00
25570;DHT22;17955;45.542;9.238;2022-08-02T11:12:09;30.80;62.20
25570;DHT22;17955;45.542;9.238;2022-08-02T11:14:38;30.60;60.80
25570;DHT22;17955;45.542;9.238;2022-08-02T11:17:15;30.50;60.40
25570;DHT22;17955;45.542;9.238;2022-08-02T11:20:13;30.60;60.40
25570;DHT22;17955;45.542;9.238;2022-08-02T11:22:44;30.50;59.30
25570;DHT22;17955;45.542;9.238;2022-08-02T11:25:33;30.20;59.80
25570;DHT22;17955;45.542;9.238;2022-08-02T11:28:09;30.20;59.60
25570;DHT22;17955;45.542;9.238;2022-08-02T11:30:36;30.20;60.00
25570;DHT22;17955;45.542;9.238;2022-08-02T11:33:04;30.40;59.70
25570;DHT22;17955;45.542;9.238;2022-08-02T11:35:32;30.50;59.60
25570;DHT22;17955;45.542;9.238;2022-08-02T11:38:16;30.60;59.60
25570;DHT22;17955;45.542;9.238;2022-08-02T11:40:44;30.70;58.60
25570;DHT22;17955;45.542;9.238;2022-08-02T11:43:16;30.60;58.90
25570;DHT22;17955;45.542;9.238;2022-08-02T11:45:43;30.50;58.90
25570;DHT22;17955;45.542;9.238;2022-08-02T11:48:10;30.30;59.20
25570;DHT22;17955;45.542;9.238;2022-08-02T11:50:37;30.30;59.80
25570;DHT22;17955;45.542;9.238;2022-08-02T11:53:13;30.40;60.00
25570;DHT22;17955;45.542;9.238;2022-08-02T11:55:41;30.60;59.50
25570;DHT22;17955;45.542;9.238;2022-08-02T11:58:09;30.70;58.80
25570;DHT22;17955;45.542;9.238;2022-08-02T12:00:36;30.70;58.40
25570;DHT22;17955;45.542;9.238;2022-08-02T12:03:05;30.90;59.20
25570;DHT22;17955;45.542;9.238;2022-08-02T12:05:33;31.00;58.50
25570;DHT22;17955;45.542;9.238;2022-08-02T12:07:59;31.20;58.60
25570;DHT22;17955;45.542;9.238;2022-08-02T12:10:28;31.30;58.40
25570;DHT22;17955;45.542;9.238;2022-08-02T12:12:56;31.30;58.30
25570;DHT22;17955;45.542;9.238;2022-08-02T12:15:35;31.10;58.30
25570;DHT22;17955;45.542;9.238;2022-08-02T12:18:08;31.10;58.70
25570;DHT22;17955;45.542;9.238;2022-08-02T12:20:53;31.20;58.60
25570;DHT22;17955;45.542;9.238;2022-08-02T12:23:20;31.20;58.40
25570;DHT22;17955;45.542;9.238;2022-08-02T12:26:00;31.20;58.60
25570;DHT22;17955;45.542;9.238;2022-08-02T12:28:32;31.20;58.20
25570;DHT22;17955;45.542;9.238;2022-08-02T12:31:00;31.30;58.20
25570;DHT22;17955;45.542;9.238;2022-08-02T12:33:29;31.20;58.00
25570;DHT22;17955;45.542;9.238;2022-08-02T12:36:14;31.30;57.90
25570;DHT22;17955;45.542;9.238;2022-08-02T12:38:49;31.30;58.00
25570;DHT22;17955;45.542;9.238;2022-08-02T12:41:18;31.40;58.00
25570;DHT22;17955;45.542;9.238;2022-08-02T12:43:45;31.50;57.90
25570;DHT22;17955;45.542;9.238;2022-08-02T12:46:15;31.60;57.80
25570;DHT22;17955;45.542;9.238;2022-08-02T12:48:42;31.60;57.70
25570;DHT22;17955;45.542;9.238;2022-08-02T12:51:20;31.70;57.70
25570;DHT22;17955;45.542;9.238;2022-08-02T12:53:48;31.70;57.70
25570;DHT22;17955;45.542;9.238;2022-08-02T12:56:27;31.60;57.80
25570;DHT22;17955;45.542;9.238;2022-08-02T12:58:54;31.60;58.00
25570;DHT22;17955;45.542;9.238;2022-08-02T13:01:22;31.50;58.10
25570;DHT22;17955;45.542;9.238;2022-08-02T13:03:49;31.40;58.30
25570;DHT22;17955;45.542;9.238;2022-08-02T13:06:18;31.40;58.20
25570;DHT22;17955;45.542;9.238;2022-08-02T13:08:45;31.30;58.10
25570;DHT22;17955;45.542;9.238;2022-08-02T13:11:12;31.20;58.00
25570;DHT22;17955;45.542;9.238;2022-08-02T13:13:40;31.20;58.40
25570;DHT22;17955;45.542;9.238;2022-08-02T13:16:08;31.20;58.70
25570;DHT22;17955;45.542;9.238;2022-08-02T13:18:36;31.20;58.70
25570;DHT22;17955;45.542;9.238;2022-08-02T13:21:04;31.20;58.60
25570;DHT22;17955;45.542;9.238;2022-08-02T13:23:31;31.10;58.60
25570;DHT22;17955;45.542;9.238;2022-08-02T13:25:59;31.20;58.50
25570;DHT22;17955;45.542;9.238;2022-08-02T13:28:26;31.30;58.40
25570;DHT22;17955;45.542;9.238;2022-08-02T13:30:54;31.20;58.00
25570;DHT22;17955;45.542;9.238;2022-08-02T13:33:21;31.20;58.00
25570;DHT22;17955;45.542;9.238;2022-08-02T13:35:49;31.30;58.30
25570;DHT22;17955;45.542;9.238;2022-08-02T13:38:16;31.20;58.40
25570;DHT22;17955;45.542;9.238;2022-08-02T13:40:43;31.20;58.50
25570;DHT22;17955;45.542;9.238;2022-08-02T13:43:24;31.10;58.20
25570;DHT22;17955;45.542;9.238;2022-08-02T13:45:51;31.10;58.30
25570;DHT22;17955;45.542;9.238;2022-08-02T13:48:19;31.20;58.20
25570;DHT22;17955;45.542;9.238;2022-08-02T13:50:46;31.30;58.10
25570;DHT22;17955;45.542;9.238;2022-08-02T13:53:13;31.50;58.00
25570;DHT22;17955;45.542;9.238;2022-08-02T13:55:40;31.40;58.00
25570;DHT22;17955;45.542;9.238;2022-08-02T13:58:07;31.60;58.10
25570;DHT22;17955;45.542;9.238;2022-08-02T14:00:34;31.70;58.00
25570;DHT22;17955;45.542;9.238;2022-08-02T14:03:02;31.70;57.90
25570;DHT22;17955;45.542;9.238;2022-08-02T14:05:30;31.70;58.40
25570;DHT22;17955;45.542;9.238;2022-08-02T14:07:58;31.50;59.30
25570;DHT22;17955;45.542;9.238;2022-08-02T14:10:25;31.30;59.40
25570;DHT22;17955;45.542;9.238;2022-08-02T14:12:52;31.30;59.50
25570;DHT22;17955;45.542;9.238;2022-08-02T14:15:19;31.40;59.50
25570;DHT22;17955;45.542;9.238;2022-08-02T14:17:46;31.50;59.40
25570;DHT22;17955;45.542;9.238;2022-08-02T14:20:14;31.60;59.30
25570;DHT22;17955;45.542;9.238;2022-08-02T14:22:42;31.70;59.20
25570;DHT22;17955;45.542;9.238;2022-08-02T14:25:09;31.80;59.20
25570;DHT22;17955;45.542;9.238;2022-08-02T14:27:36;31.70;59.30
25570;DHT22;17955;45.542;9.238;2022-08-02T14:30:04;31.70;59.50
25570;DHT22;17955;45.542;9.238;2022-08-02T14:32:31;31.60;59.30
25570;DHT22;17955;45.542;9.238;2022-08-02T14:34:57;31.40;59.30
25570;DHT22;17955;45.542;9.238;2022-08-02T14:37:24;31.40;59.60
25570;DHT22;17955;45.542;9.238;2022-08-02T14:39:53;31.40;59.60
25570;DHT22;17955;45.542;9.238;2022-08-02T14:42:20;31.50;59.60
25570;DHT22;17955;45.542;9.238;2022-08-02T14:44:47;31.60;59.60
25570;DHT22;17955;45.542;9.238;2022-08-02T14:47:14;31.70;59.60
25570;DHT22;17955;45.542;9.238;2022-08-02T14:49:41;31.70;59.40
25570;DHT22;17955;45.542;9.238;2022-08-02T14:52:08;31.70;59.70
25570;DHT22;17955;45.542;9.238;2022-08-02T14:54:37;31.70;59.80
25570;DHT22;17955;45.542;9.238;2022-08-02T14:57:07;31.60;59.90
25570;DHT22;17955;45.542;9.238;2022-08-02T14:59:34;31.50;60.10
25570;DHT22;17955;45.542;9.238;2022-08-02T15:02:01;31.50;60.00
25570;DHT22;17955;45.542;9.238;2022-08-02T15:04:28;31.60;59.90
25570;DHT22;17955;45.542;9.238;2022-08-02T15:06:55;31.60;59.70
25570;DHT22;17955;45.542;9.238;2022-08-02T15:09:22;31.60;59.60
25570;DHT22;17955;45.542;9.238;2022-08-02T15:11:49;31.60;59.60
25570;DHT22;17955;45.542;9.238;2022-08-02T15:14:19;31.70;59.70
25570;DHT22;17955;45.542;9.238;2022-08-02T15:16:46;31.70;59.70
25570;DHT22;17955;45.542;9.238;2022-08-02T15:19:13;31.80;59.60
25570;DHT22;17955;45.542;9.238;2022-08-02T15:21:40;31.90;59.50
25570;DHT22;17955;45.542;9.238;2022-08-02T15:24:07;31.90;59.70
25570;DHT22;17955;45.542;9.238;2022-08-02T15:26:34;31.90;59.80
25570;DHT22;17955;45.542;9.238;2022-08-02T15:29:01;31.80;59.60
25570;DHT22;17955;45.542;9.238;2022-08-02T15:31:29;31.80;59.60
25570;DHT22;17955;45.542;9.238;2022-08-02T15:33:56;31.60;59.60
25570;DHT22;17955;45.542;9.238;2022-08-02T15:36:23;31.50;59.60
25570;DHT22;17955;45.542;9.238;2022-08-02T15:38:50;31.40;60.00
25570;DHT22;17955;45.542;9.238;2022-08-02T15:41:17;31.30;60.10
25570;DHT22;17955;45.542;9.238;2022-08-02T15:43:44;31.20;60.20